• Join FlightAware (Why Join?)
  • Login
  • US Flag 
04:02AM EDT


 

Airport Tracker/Info


-or-


 

Live Flight TrackerFlight Track Log ✈ N42J ✈ 27-Jun-2013 ✈ KLNS - KVBW

Flight Track Log - Related Links

Times and Time Zones

All times are in EDT time to prevent confusion due to time zone crossing. See the N42J flight status page for this flight to view local times or setup timezone preferences in your user account.

Time Position Orientation Groundspeed Altitude Reporting Facility
EDT Latitude Longitude Course Direction KTS MPH feet Rate Location/Type
12:39PM 40.0980 -76.2670 245° Southwest 154 177 4,000  Level FlightAware
12:39PM 40.0880 -76.2950 245° Southwest 142 163 5,400 2,280 Climbing FlightAware
12:39PM 40.0830 -76.3080 243° Southwest 140 161 6,100 2,280 Climbing FlightAware
12:40PM 40.0740 -76.3320 244° Southwest 142 163 7,300 1,980 Climbing FlightAware
12:40PM 40.0660 -76.3560 246° West 155 178 8,100 1,620 Climbing FlightAware
12:41PM 40.0540 -76.3940 248° West 178 205 9,200 1,620 Climbing FlightAware
12:42PM 40.0430 -76.4320 249° West 170 196 10,400 1,620 Climbing FlightAware
12:43PM 40.0310 -76.4820 253° West 174 200 11,800 1,920 Climbing FlightAware
12:43PM 40.0208 -76.5145 248° West 168 193 12,900 1,800 Climbing FlightAware ADS-B
12:44PM 40.0075 -76.5443 240° Southwest 165 190 13,700 1,140 Climbing FlightAware ADS-B
12:44PM 39.9956 -76.5684 237° Southwest 185 213 14,100 420 Climbing FlightAware ADS-B
12:45PM 39.9798 -76.5980 235° Southwest 208 239 14,100  Level FlightAware ADS-B
12:46PM 39.9472 -76.6669 238° Southwest 217 250 14,100  Level FlightAware ADS-B
12:46PM 39.9287 -76.7067 239° Southwest 213 245 14,100  Level FlightAware ADS-B
12:47PM 39.9020 -76.7610 237° Southwest 206 237 14,100  Level FlightAware
12:48PM 39.8824 -76.8048 240° Southwest 211 243 14,100  Level FlightAware ADS-B
12:48PM 39.8654 -76.8410 239° Southwest 211 243 14,100  Level FlightAware ADS-B
12:49PM 39.8497 -76.8747 239° Southwest 212 244 14,100  Level FlightAware ADS-B
12:49PM 39.8341 -76.9081 239° Southwest 211 243 14,100  Level FlightAware ADS-B
12:50PM 39.8185 -76.9416 239° Southwest 213 245 14,100  Level FlightAware ADS-B
12:51PM 39.8010 -76.9800 239° Southwest 215 247 14,100  Level FlightAware
12:51PM 39.7857 -77.0114 238° Southwest 216 249 14,100  Level FlightAware ADS-B
12:52PM 39.7570 -77.0720 238° Southwest 217 250 14,100  Level FlightAware
12:53PM 39.7390 -77.1120 240° Southwest 219 252 14,100  Level FlightAware
12:54PM 39.7090 -77.1740 238° Southwest 219 252 14,100  Level FlightAware
12:54PM 39.6770 -77.2410 238° Southwest 219 252 14,200  Climbing FlightAware
12:56PM 39.6370 -77.3250 238° Southwest 218 251 14,100 -60 Descending FlightAware
12:56PM 39.6160 -77.3710 239° Southwest 218 251 14,100 60 Level FlightAware
12:57PM 39.5870 -77.4300 237° Southwest 218 251 14,200 60 Climbing FlightAware
12:58PM 39.5620 -77.4820 238° Southwest 218 251 14,200  Level FlightAware
12:59PM 39.5490 -77.5090 238° Southwest 220 253 14,200  Level FlightAware
12:59PM 39.5340 -77.5410 239° Southwest 221 254 14,200  Level FlightAware
01:03PM 39.4050 -77.8080 238° Southwest 220 253 14,200  Level FlightAware
01:04PM 39.3830 -77.8520 237° Southwest 220 253 14,200  Level FlightAware
01:05PM 39.3230 -77.9750 238° Southwest 224 258 14,200  Level FlightAware
01:07PM 39.2720 -78.0780 237° Southwest 231 266 14,200  Level FlightAware
01:08PM 39.2470 -78.1320 239° Southwest 233 268 14,200  Level FlightAware
01:08PM 39.2250 -78.1790 239° Southwest 234 269 14,200  Level FlightAware
01:09PM 39.2010 -78.2320 240° Southwest 236 272 14,200  Level FlightAware
01:10PM 39.1590 -78.3130 236° Southwest 235 270 14,200  Level FlightAware
01:11PM 39.1100 -78.3890 230° Southwest 234 269 14,200 -60 Level FlightAware
01:12PM 39.0760 -78.4210 216° Southwest 225 259 14,100  Descending FlightAware
01:13PM 39.0300 -78.4570 211° Southwest 209 241 14,200 -360 Climbing FlightAware
01:14PM 38.9950 -78.4840 211° Southwest 220 253 13,600 -1,020 Descending FlightAware
01:14PM 38.9540 -78.5150 210° Southwest 231 266 12,800 -1,140 Descending FlightAware
01:15PM 38.9180 -78.5430 211° Southwest 233 268 12,000 -1,260 Descending FlightAware
01:16PM 38.8750 -78.5760 211° Southwest 235 270 11,000 -1,380 Descending FlightAware
01:16PM 38.8380 -78.6040 211° Southwest 236 272 10,100 -1,440 Descending FlightAware
01:17PM 38.8100 -78.6250 210° Southwest 235 270 9,400 -780 Descending FlightAware
01:17PM 38.7880 -78.6420 211° Southwest 235 270 9,400  Level FlightAware
01:18PM 38.7690 -78.6560 210° Southwest 235 270 9,400  Level FlightAware
01:18PM 38.7400 -78.6780 211° Southwest 235 270 9,400  Level FlightAware
01:19PM 38.7210 -78.6910 208° Southwest 235 270 9,400 -3,060 Level FlightAware
01:19PM 38.6828 -78.7300 208° Southwest 236 272 6,500 -2,280 Descending Washington Center
01:20PM 38.6417 -78.7839 226° Southwest 231 266 6,000 -240 Descending Washington Center
01:21PM 38.6053 -78.8222 219° Southwest 225 259 6,100 60 Climbing Washington Center
01:22PM 38.5561 -78.8678 216° Southwest 213 245 6,200 -60 Climbing Washington Center
01:23PM 38.4989 -78.8944 200° South 213 245 6,000 -240 Descending Washington Center